Time;durP1;ratioP1;P1;durP2;ratioP2;P2;SDS_P1;SDS_P2;PMS_P1;PMS_P2;Temp;Humidity;BMP_temperature;BMP_pressure;BME280_temperature;BME280_humidity;BME280_pressure;Samples;Min_cycle;Max_cycle;Signal;HPM_P1;HPM_P2
2023/10/19 00:02:19;;;;;;;8.13;7.53;;;;;;;;;;5980511;29;20054;-89
2023/10/19 00:05:21;;;;;;;7.65;7.20;;;;;;;;;;5988400;29;20073;-89
2023/10/19 00:08:23;;;;;;;7.10;6.45;;;;;;;;;;5994446;29;20047;-89
2023/10/19 00:11:26;;;;;;;7.63;7.13;;;;;;;;;;5986074;29;20034;-90
2023/10/19 00:14:28;;;;;;;7.85;7.32;;;;;;;;;;5993581;29;20042;-92
2023/10/19 00:17:32;;;;;;;8.02;7.55;;;;;;;;;;5993356;29;20054;-92
2023/10/19 00:23:48;;;;;;;7.13;6.70;;;;;;;;;;5983488;29;20050;-92
2023/10/19 00:27:05;;;;;;;7.28;6.53;;;;;;;;;;5992736;29;20050;-94
2023/10/19 00:30:10;;;;;;;8.77;8.32;;;;;;;;;;5976643;29;20096;-93
2023/10/19 00:33:17;;;;;;;7.55;7.05;;;;;;;;;;5993274;29;20505;-93
2023/10/19 00:36:20;;;;;;;8.80;8.10;;;;;;;;;;6000618;29;20065;-92
2023/10/19 00:39:27;;;;;;;8.48;7.97;;;;;;;;;;5983200;29;20509;-92
2023/10/19 00:42:32;;;;;;;8.60;7.72;;;;;;;;;;5981175;29;20047;-92
2023/10/19 00:45:39;;;;;;;18.20;8.50;;;;;;;;;;5972328;29;20061;-90
2023/10/19 00:48:45;;;;;;;6.13;5.72;;;;;;;;;;5981880;29;20200;-90
2023/10/19 00:55:12;;;;;;;11.85;10.80;;;;;;;;;;5982493;29;20600;-90
2023/10/19 00:58:17;;;;;;;8.10;7.47;;;;;;;;;;5986831;29;20054;-93
2023/10/19 01:01:22;;;;;;;8.50;7.75;;;;;;;;;;5980791;29;20054;-90
2023/10/19 01:04:25;;;;;;;8.32;7.80;;;;;;;;;;5979684;29;20050;-89
2023/10/19 01:07:28;;;;;;;7.35;6.95;;;;;;;;;;5980696;29;20417;-95
2023/10/19 01:10:31;;;;;;;9.20;8.50;;;;;;;;;;5980029;29;20137;-88
2023/10/19 01:13:34;;;;;;;19.08;9.02;;;;;;;;;;5968330;29;20061;-91
2023/10/19 01:16:37;;;;;;;7.45;6.95;;;;;;;;;;5981139;29;20065;-85
2023/10/19 01:19:40;;;;;;;8.88;8.27;;;;;;;;;;5980893;29;20785;-85
2023/10/19 01:22:47;;;;;;;9.13;8.38;;;;;;;;;;5987165;29;20054;-84
2023/10/19 01:32:29;;;;;;;8.48;7.82;;;;;;;;;;6018909;29;20053;-89
2023/10/19 01:38:55;;;;;;;8.23;7.60;;;;;;;;;;6020096;29;20066;-88
2023/10/19 01:41:57;;;;;;;9.68;8.75;;;;;;;;;;6022011;29;20049;-91
2023/10/19 01:44:59;;;;;;;9.27;8.48;;;;;;;;;;6006040;29;20064;-86
2023/10/19 01:48:02;;;;;;;10.50;9.70;;;;;;;;;;6020788;29;20054;-87
2023/10/19 01:51:05;;;;;;;16.83;10.18;;;;;;;;;;6013472;29;20053;-91
2023/10/19 01:54:07;;;;;;;7.93;7.43;;;;;;;;;;6020969;29;20045;-88
2023/10/19 01:57:09;;;;;;;9.70;9.00;;;;;;;;;;6021482;29;20065;-88
2023/10/19 02:00:17;;;;;;;9.02;8.35;;;;;;;;;;6020258;29;20416;-90
2023/10/19 02:03:23;;;;;;;9.85;9.02;;;;;;;;;;5993790;29;20082;-86
2023/10/19 02:06:27;;;;;;;10.00;9.30;;;;;;;;;;6020996;29;20093;-87
2023/10/19 02:09:32;;;;;;;9.13;8.27;;;;;;;;;;5994044;29;20049;-88
2023/10/19 02:12:34;;;;;;;9.18;8.57;;;;;;;;;;5990186;29;20080;-87
2023/10/19 02:15:36;;;;;;;8.50;7.90;;;;;;;;;;5997757;29;20050;-87
2023/10/19 02:18:40;;;;;;;9.80;8.45;;;;;;;;;;5978425;29;20252;-90
2023/10/19 02:21:42;;;;;;;12.60;8.82;;;;;;;;;;5977592;29;20082;-91
2023/10/19 02:24:43;;;;;;;6.95;6.55;;;;;;;;;;6001359;29;20126;-88
2023/10/19 02:27:45;;;;;;;9.35;8.55;;;;;;;;;;5980405;29;20533;-91
2023/10/19 02:30:47;;;;;;;8.57;8.02;;;;;;;;;;5985162;29;20061;-87
2023/10/19 02:34:01;;;;;;;7.95;7.45;;;;;;;;;;5978038;29;20057;-88
2023/10/19 02:37:03;;;;;;;11.88;10.02;;;;;;;;;;5992119;29;20057;-88
2023/10/19 02:40:12;;;;;;;8.27;7.63;;;;;;;;;;5990666;29;20145;-88
2023/10/19 02:43:15;;;;;;;9.73;8.98;;;;;;;;;;5982710;29;20070;-87
2023/10/19 02:46:17;;;;;;;9.30;8.57;;;;;;;;;;5990960;29;20045;-87
2023/10/19 02:49:20;;;;;;;15.50;9.43;;;;;;;;;;5983279;29;20105;-87
2023/10/19 02:52:22;;;;;;;10.57;8.07;;;;;;;;;;5992209;29;20054;-87
2023/10/19 02:55:25;;;;;;;10.48;8.48;;;;;;;;;;5998993;29;20041;-87
2023/10/19 02:58:28;;;;;;;7.97;7.05;;;;;;;;;;5989446;29;20050;-86
2023/10/19 03:01:36;;;;;;;8.30;7.75;;;;;;;;;;5992700;29;20054;-87
2023/10/19 03:04:38;;;;;;;8.65;8.05;;;;;;;;;;5978113;29;20089;-86
2023/10/19 03:07:46;;;;;;;10.05;8.07;;;;;;;;;;5982055;29;20065;-90
2023/10/19 03:11:01;;;;;;;8.93;8.25;;;;;;;;;;5981906;29;20706;-87
2023/10/19 03:14:06;;;;;;;8.38;7.68;;;;;;;;;;5980453;29;20061;-89
2023/10/19 03:17:10;;;;;;;8.63;8.05;;;;;;;;;;5992796;29;20134;-88
2023/10/19 03:20:12;;;;;;;11.15;10.15;;;;;;;;;;5985098;29;20061;-88
2023/10/19 03:23:14;;;;;;;8.35;7.82;;;;;;;;;;5978833;29;20561;-88
2023/10/19 03:26:23;;;;;;;12.70;9.02;;;;;;;;;;5981137;29;20053;-89
2023/10/19 03:29:31;;;;;;;9.43;8.63;;;;;;;;;;5979120;29;20090;-90
2023/10/19 03:32:33;;;;;;;12.55;8.48;;;;;;;;;;5989169;29;20054;-89
2023/10/19 03:35:36;;;;;;;14.77;13.57;;;;;;;;;;5976334;29;20057;-88
2023/10/19 03:38:37;;;;;;;8.75;8.15;;;;;;;;;;5988447;29;20631;-87
2023/10/19 03:41:44;;;;;;;9.25;8.43;;;;;;;;;;5992345;29;20522;-87
2023/10/19 03:47:53;;;;;;;10.32;8.20;;;;;;;;;;5996847;29;20046;-88
2023/10/19 03:50:56;;;;;;;7.78;7.30;;;;;;;;;;5986197;29;20046;-88
2023/10/19 03:54:01;;;;;;;9.80;9.10;;;;;;;;;;5979343;29;20137;-88
2023/10/19 03:57:06;;;;;;;7.07;6.65;;;;;;;;;;5984195;29;20149;-87
2023/10/19 04:00:15;;;;;;;9.82;8.95;;;;;;;;;;5985229;29;20134;-90
2023/10/19 04:03:17;;;;;;;8.98;8.35;;;;;;;;;;5981521;29;20047;-91
2023/10/19 04:06:20;;;;;;;11.27;8.50;;;;;;;;;;5979702;29;20102;-90
2023/10/19 04:09:22;;;;;;;8.32;7.75;;;;;;;;;;5979845;29;20058;-88
2023/10/19 04:12:24;;;;;;;9.27;8.63;;;;;;;;;;5987750;29;20073;-87
2023/10/19 04:15:26;;;;;;;8.70;7.97;;;;;;;;;;5988585;29;20049;-86
2023/10/19 04:18:28;;;;;;;8.30;7.60;;;;;;;;;;5988633;29;20038;-87
2023/10/19 04:21:30;;;;;;;10.00;7.82;;;;;;;;;;5987761;29;20049;-87
2023/10/19 04:24:38;;;;;;;7.70;7.10;;;;;;;;;;5993135;29;20058;-91
2023/10/19 04:27:41;;;;;;;8.68;7.95;;;;;;;;;;5991493;29;20149;-90
2023/10/19 04:30:43;;;;;;;8.98;8.25;;;;;;;;;;5987049;29;20050;-89
2023/10/19 04:33:45;;;;;;;8.60;7.95;;;;;;;;;;5996606;29;20054;-88
2023/10/19 04:36:48;;;;;;;8.80;7.82;;;;;;;;;;5985886;29;20050;-87
2023/10/19 04:39:50;;;;;;;7.85;7.15;;;;;;;;;;5997698;29;20057;-90
2023/10/19 04:42:52;;;;;;;13.52;8.10;;;;;;;;;;5988405;29;20569;-89
2023/10/19 04:45:54;;;;;;;7.68;7.18;;;;;;;;;;5993831;29;20077;-89
2023/10/19 04:48:56;;;;;;;6.35;6.03;;;;;;;;;;5999376;29;20484;-88
2023/10/19 04:51:57;;;;;;;7.03;6.53;;;;;;;;;;6002437;29;20053;-89
2023/10/19 04:55:01;;;;;;;7.35;6.68;;;;;;;;;;5983326;29;20513;-88
2023/10/19 04:58:02;;;;;;;7.15;6.65;;;;;;;;;;5983778;29;20061;-88
2023/10/19 05:01:05;;;;;;;9.10;8.30;;;;;;;;;;5983380;29;20111;-88
2023/10/19 05:04:07;;;;;;;7.25;6.63;;;;;;;;;;5988259;29;20111;-87
2023/10/19 05:07:14;;;;;;;7.03;6.53;;;;;;;;;;5986130;29;20492;-90
2023/10/19 05:10:16;;;;;;;5.60;5.28;;;;;;;;;;5986636;29;20553;-88
2023/10/19 05:13:19;;;;;;;8.40;7.88;;;;;;;;;;5997822;29;20057;-91
2023/10/19 05:16:21;;;;;;;7.38;6.95;;;;;;;;;;5983023;29;20218;-91
2023/10/19 05:19:23;;;;;;;6.97;6.63;;;;;;;;;;5992455;29;20544;-88
2023/10/19 05:22:29;;;;;;;6.97;6.57;;;;;;;;;;5987491;29;20054;-91
2023/10/19 05:25:31;;;;;;;7.30;6.85;;;;;;;;;;5990408;29;20042;-88
2023/10/19 05:28:33;;;;;;;7.95;7.20;;;;;;;;;;5994666;29;20137;-89
2023/10/19 05:31:35;;;;;;;7.68;6.93;;;;;;;;;;5984369;29;20149;-90
2023/10/19 05:34:37;;;;;;;6.43;6.07;;;;;;;;;;5991575;29;20133;-89
2023/10/19 05:37:39;;;;;;;5.85;5.55;;;;;;;;;;5984331;29;20441;-89
2023/10/19 05:40:42;;;;;;;9.23;6.47;;;;;;;;;;5995986;29;20050;-89
2023/10/19 05:43:45;;;;;;;6.65;6.18;;;;;;;;;;5981603;29;20069;-88
2023/10/19 05:46:49;;;;;;;7.18;6.70;;;;;;;;;;5985834;29;20034;-90
2023/10/19 05:49:51;;;;;;;7.55;7.05;;;;;;;;;;5995731;29;20042;-88
2023/10/19 05:52:56;;;;;;;6.78;6.32;;;;;;;;;;5983106;29;20046;-89
2023/10/19 05:55:58;;;;;;;6.05;5.75;;;;;;;;;;5982981;29;20050;-88
2023/10/19 05:59:01;;;;;;;6.60;6.05;;;;;;;;;;5988580;29;20092;-89
2023/10/19 06:02:02;;;;;;;6.38;6.03;;;;;;;;;;5976232;29;20069;-89
2023/10/19 06:05:05;;;;;;;5.85;5.55;;;;;;;;;;5982856;29;20341;-89
2023/10/19 06:08:08;;;;;;;6.40;6.10;;;;;;;;;;5985797;29;20133;-89
2023/10/19 06:11:10;;;;;;;4.97;4.78;;;;;;;;;;5993545;29;20050;-89
2023/10/19 06:14:12;;;;;;;6.55;6.25;;;;;;;;;;5992689;29;20049;-89
2023/10/19 06:17:18;;;;;;;5.88;5.63;;;;;;;;;;5986067;29;20074;-89
2023/10/19 06:20:26;;;;;;;6.22;5.85;;;;;;;;;;5996853;29;20058;-89
2023/10/19 06:23:28;;;;;;;6.03;5.72;;;;;;;;;;5997443;29;20057;-89
2023/10/19 06:26:30;;;;;;;7.03;6.53;;;;;;;;;;5983282;29;20050;-89
2023/10/19 06:29:32;;;;;;;5.20;5.00;;;;;;;;;;6000664;29;20053;-90
2023/10/19 06:32:34;;;;;;;6.72;6.32;;;;;;;;;;5985850;29;20057;-89
2023/10/19 06:35:37;;;;;;;5.93;5.53;;;;;;;;;;5987803;29;20054;-89
2023/10/19 06:38:39;;;;;;;6.15;5.72;;;;;;;;;;5991107;29;20054;-90
2023/10/19 06:41:41;;;;;;;5.70;5.35;;;;;;;;;;5985148;29;20054;-90
2023/10/19 06:44:43;;;;;;;6.47;6.00;;;;;;;;;;5987877;29;20085;-90
2023/10/19 06:47:46;;;;;;;6.03;5.75;;;;;;;;;;5983641;29;20631;-90
2023/10/19 06:50:49;;;;;;;6.82;6.38;;;;;;;;;;5990690;29;20552;-90
2023/10/19 06:53:53;;;;;;;5.60;5.18;;;;;;;;;;5993049;29;20094;-90
2023/10/19 06:56:55;;;;;;;6.47;5.97;;;;;;;;;;5985050;29;20060;-90
2023/10/19 06:59:57;;;;;;;5.80;5.60;;;;;;;;;;5988528;29;20050;-90
2023/10/19 07:03:03;;;;;;;5.85;5.45;;;;;;;;;;5985099;29;20038;-90
2023/10/19 07:06:07;;;;;;;6.30;5.97;;;;;;;;;;5984055;29;20085;-90
2023/10/19 07:09:15;;;;;;;6.38;5.97;;;;;;;;;;5981840;29;20050;-90
2023/10/19 07:12:18;;;;;;;6.65;6.25;;;;;;;;;;5987275;29;20054;-90
2023/10/19 07:15:26;;;;;;;7.88;7.13;;;;;;;;;;5997088;29;20145;-90
2023/10/19 07:18:28;;;;;;;5.70;5.40;;;;;;;;;;5984168;29;20443;-91
2023/10/19 07:21:35;;;;;;;13.05;5.60;;;;;;;;;;5999129;29;20046;-91
2023/10/19 07:24:38;;;;;;;5.85;5.45;;;;;;;;;;5981509;29;20827;-90
2023/10/19 07:27:42;;;;;;;5.68;5.40;;;;;;;;;;5981924;29;20046;-90
2023/10/19 07:30:44;;;;;;;6.55;5.97;;;;;;;;;;5985584;29;20584;-90
2023/10/19 07:33:46;;;;;;;4.65;4.45;;;;;;;;;;5983650;29;20057;-91
2023/10/19 07:36:49;;;;;;;6.55;5.47;;;;;;;;;;5983302;29;20164;-90
2023/10/19 07:39:52;;;;;;;5.00;4.80;;;;;;;;;;5983524;29;20058;-90
2023/10/19 07:42:59;;;;;;;6.47;6.13;;;;;;;;;;5991279;29;20129;-91
2023/10/19 07:46:01;;;;;;;6.47;6.03;;;;;;;;;;5984912;29;20073;-89
2023/10/19 07:49:03;;;;;;;4.57;4.38;;;;;;;;;;5997771;29;20054;-88
2023/10/19 07:52:06;;;;;;;6.82;6.28;;;;;;;;;;5995961;29;20053;-88
2023/10/19 07:55:08;;;;;;;5.35;5.15;;;;;;;;;;5988650;29;20050;-89
2023/10/19 07:58:11;;;;;;;6.50;6.10;;;;;;;;;;5989466;29;20115;-89
2023/10/19 08:01:13;;;;;;;5.63;5.25;;;;;;;;;;5996453;29;20121;-88
2023/10/19 08:04:15;;;;;;;5.03;4.85;;;;;;;;;;5989214;29;20054;-88
2023/10/19 08:07:17;;;;;;;6.95;6.47;;;;;;;;;;5996776;29;20089;-88
2023/10/19 08:10:19;;;;;;;5.40;5.18;;;;;;;;;;6001107;29;20842;-88
2023/10/19 08:13:21;;;;;;;4.90;4.70;;;;;;;;;;5995167;29;20520;-88
2023/10/19 08:16:27;;;;;;;6.15;5.75;;;;;;;;;;5984246;29;20042;-88
2023/10/19 08:19:31;;;;;;;4.85;4.65;;;;;;;;;;5983972;29;20047;-88
2023/10/19 08:22:33;;;;;;;5.15;4.95;;;;;;;;;;5986216;29;20398;-88
2023/10/19 08:25:35;;;;;;;4.05;3.85;;;;;;;;;;5983641;29;20527;-88
2023/10/19 08:28:58;;;;;;;5.57;5.22;;;;;;;;;;5983510;29;20050;-88
2023/10/19 08:32:00;;;;;;;5.05;4.85;;;;;;;;;;5998480;29;20128;-88
2023/10/19 08:35:04;;;;;;;6.32;5.78;;;;;;;;;;6003242;29;20414;-88
2023/10/19 08:38:11;;;;;;;5.90;5.50;;;;;;;;;;5981876;29;20513;-88
2023/10/19 08:41:15;;;;;;;6.40;5.95;;;;;;;;;;5991577;29;20058;-88
2023/10/19 08:44:17;;;;;;;6.05;4.85;;;;;;;;;;5995709;29;20544;-88
2023/10/19 08:47:19;;;;;;;5.85;5.55;;;;;;;;;;6005191;29;20424;-88
2023/10/19 08:50:23;;;;;;;5.80;5.55;;;;;;;;;;5993087;29;20050;-88
2023/10/19 08:53:26;;;;;;;4.85;4.65;;;;;;;;;;5986419;29;20042;-88
2023/10/19 08:56:27;;;;;;;4.97;4.72;;;;;;;;;;5991522;29;20079;-88
2023/10/19 08:59:29;;;;;;;4.78;4.57;;;;;;;;;;5995905;29;20098;-88
2023/10/19 09:02:31;;;;;;;4.25;4.15;;;;;;;;;;5994160;29;20194;-88
2023/10/19 09:05:37;;;;;;;5.13;4.93;;;;;;;;;;5986404;29;20051;-88
2023/10/19 09:08:40;;;;;;;4.78;4.55;;;;;;;;;;5986122;29;20067;-88
2023/10/19 09:11:42;;;;;;;5.10;4.88;;;;;;;;;;5983306;29;20638;-88
2023/10/19 09:14:45;;;;;;;4.45;4.25;;;;;;;;;;5983392;29;20062;-88
2023/10/19 09:17:49;;;;;;;5.72;5.43;;;;;;;;;;5987155;29;20367;-88
2023/10/19 09:21:07;;;;;;;4.95;4.75;;;;;;;;;;5989623;29;20507;-88
2023/10/19 09:24:10;;;;;;;5.95;5.40;;;;;;;;;;5994954;29;20050;-89
2023/10/19 09:27:13;;;;;;;4.40;4.30;;;;;;;;;;5983861;29;20500;-88
2023/10/19 09:30:18;;;;;;;5.43;5.05;;;;;;;;;;5982214;29;20054;-88
2023/10/19 09:33:21;;;;;;;5.75;5.45;;;;;;;;;;5984345;29;20057;-88
2023/10/19 09:36:26;;;;;;;5.78;5.38;;;;;;;;;;5981255;29;20177;-89
2023/10/19 09:39:34;;;;;;;5.57;5.28;;;;;;;;;;5992898;29;20428;-88
2023/10/19 09:42:36;;;;;;;6.45;5.88;;;;;;;;;;5984338;29;20505;-89
2023/10/19 09:45:41;;;;;;;5.25;5.03;;;;;;;;;;6002101;29;20473;-88
2023/10/19 09:48:50;;;;;;;4.93;4.68;;;;;;;;;;5984112;29;20085;-88
2023/10/19 09:51:52;;;;;;;4.63;4.43;;;;;;;;;;5988586;29;20046;-88
2023/10/19 09:55:10;;;;;;;5.00;4.80;;;;;;;;;;5988368;29;20068;-89
2023/10/19 09:58:14;;;;;;;5.85;5.45;;;;;;;;;;5985576;29;20065;-89
2023/10/19 10:01:15;;;;;;;5.03;4.82;;;;;;;;;;5996968;29;20046;-88
2023/10/19 10:04:35;;;;;;;5.32;5.03;;;;;;;;;;5993033;29;20055;-89
2023/10/19 10:07:37;;;;;;;4.68;4.40;;;;;;;;;;5984939;29;20050;-89
2023/10/19 10:10:49;;;;;;;5.45;5.18;;;;;;;;;;5994682;29;20269;-88
2023/10/19 10:13:51;;;;;;;6.28;5.60;;;;;;;;;;5994947;29;20412;-88
2023/10/19 10:17:04;;;;;;;6.72;6.25;;;;;;;;;;5986682;29;20054;-89
2023/10/19 10:20:13;;;;;;;5.88;5.55;;;;;;;;;;5993524;29;20042;-89
2023/10/19 10:23:16;;;;;;;4.95;4.75;;;;;;;;;;5992917;29;20075;-89
2023/10/19 10:26:18;;;;;;;5.05;4.85;;;;;;;;;;5997594;29;20400;-89
2023/10/19 10:29:27;;;;;;;4.30;4.20;;;;;;;;;;5991693;29;20504;-89
2023/10/19 10:32:47;;;;;;;5.30;5.00;;;;;;;;;;5990462;29;20170;-89
2023/10/19 10:35:55;;;;;;;5.40;5.10;;;;;;;;;;5979972;29;20076;-89
2023/10/19 10:39:05;;;;;;;6.32;5.82;;;;;;;;;;5995752;29;20174;-89
2023/10/19 10:42:08;;;;;;;6.65;6.13;;;;;;;;;;5988272;29;20073;-89
2023/10/19 10:45:21;;;;;;;6.22;5.82;;;;;;;;;;5991391;29;20038;-89
2023/10/19 10:48:23;;;;;;;5.55;5.35;;;;;;;;;;5982633;29;20380;-89
2023/10/19 10:51:30;;;;;;;6.60;6.22;;;;;;;;;;5995609;29;20046;-89
2023/10/19 10:54:32;;;;;;;5.95;5.65;;;;;;;;;;5987264;29;20042;-89
2023/10/19 10:57:34;;;;;;;5.70;5.35;;;;;;;;;;5989614;29;20041;-89
2023/10/19 11:00:42;;;;;;;5.65;5.25;;;;;;;;;;5980659;29;20069;-90
2023/10/19 11:03:46;;;;;;;6.07;5.78;;;;;;;;;;5984045;29;20080;-90
2023/10/19 11:06:49;;;;;;;6.25;5.88;;;;;;;;;;5985548;29;20605;-90
2023/10/19 11:09:51;;;;;;;6.65;6.15;;;;;;;;;;5995131;29;20046;-90
2023/10/19 11:13:05;;;;;;;5.75;5.45;;;;;;;;;;5990505;29;20414;-90
2023/10/19 11:16:07;;;;;;;5.97;5.57;;;;;;;;;;5991272;29;20050;-91
2023/10/19 11:19:09;;;;;;;5.63;5.35;;;;;;;;;;5987921;29;20053;-91
2023/10/19 11:22:11;;;;;;;6.30;5.20;;;;;;;;;;5989095;29;20618;-91
2023/10/19 11:25:20;;;;;;;6.72;6.22;;;;;;;;;;5985671;29;20062;-91
2023/10/19 11:28:28;;;;;;;5.78;5.40;;;;;;;;;;5994819;29;20038;-91
2023/10/19 11:31:37;;;;;;;5.65;5.32;;;;;;;;;;5989931;29;20045;-91
2023/10/19 11:34:39;;;;;;;5.13;4.93;;;;;;;;;;5988668;29;20110;-91
2023/10/19 11:37:48;;;;;;;5.65;5.15;;;;;;;;;;5984235;29;20081;-91
2023/10/19 11:40:52;;;;;;;6.50;6.10;;;;;;;;;;5996572;29;20042;-91
2023/10/19 11:43:55;;;;;;;4.18;4.07;;;;;;;;;;5983478;29;20125;-92
2023/10/19 11:46:58;;;;;;;5.00;4.70;;;;;;;;;;5995176;29;20054;-92
2023/10/19 11:50:00;;;;;;;5.00;4.70;;;;;;;;;;5989029;29;20053;-92
2023/10/19 11:53:05;;;;;;;5.07;4.85;;;;;;;;;;5999832;29;20170;-92
2023/10/19 11:56:08;;;;;;;5.70;5.40;;;;;;;;;;5999920;29;20046;-92
2023/10/19 11:59:12;;;;;;;5.40;5.05;;;;;;;;;;5980188;29;20103;-92
2023/10/19 12:02:18;;;;;;;6.15;5.60;;;;;;;;;;5993822;29;20077;-92
2023/10/19 12:05:21;;;;;;;5.32;5.00;;;;;;;;;;5983348;29;20489;-92
2023/10/19 12:08:24;;;;;;;4.93;4.60;;;;;;;;;;5985045;29;20619;-93
2023/10/19 12:11:26;;;;;;;7.80;6.00;;;;;;;;;;5980948;29;20042;-93
2023/10/19 12:14:28;;;;;;;6.20;5.80;;;;;;;;;;5984543;29;20497;-93
2023/10/19 12:17:31;;;;;;;5.82;5.32;;;;;;;;;;5991926;29;20425;-94
2023/10/19 12:20:35;;;;;;;6.03;5.63;;;;;;;;;;5996352;29;20110;-93
2023/10/19 12:23:40;;;;;;;5.18;4.88;;;;;;;;;;5985956;29;20057;-93
2023/10/19 12:26:42;;;;;;;6.13;5.68;;;;;;;;;;5984165;29;20058;-93
2023/10/19 12:29:44;;;;;;;5.03;4.35;;;;;;;;;;5988117;29;20061;-93
2023/10/19 12:32:49;;;;;;;5.72;5.43;;;;;;;;;;5994166;29;20132;-95
2023/10/19 12:35:57;;;;;;;5.32;5.03;;;;;;;;;;5997695;29;20489;-93
2023/10/19 12:38:59;;;;;;;6.15;5.70;;;;;;;;;;6003556;29;20402;-94
2023/10/19 12:42:01;;;;;;;5.53;5.22;;;;;;;;;;5997082;29;20056;-93
2023/10/19 12:45:04;;;;;;;7.03;6.55;;;;;;;;;;5991530;29;20050;-94
2023/10/19 12:48:06;;;;;;;4.93;4.72;;;;;;;;;;6004935;29;20050;-94
2023/10/19 12:51:22;;;;;;;5.78;5.45;;;;;;;;;;5982289;29;20062;-94
2023/10/19 12:54:24;;;;;;;6.13;5.35;;;;;;;;;;5984534;29;20057;-96
2023/10/19 12:57:27;;;;;;;5.05;4.85;;;;;;;;;;5983054;29;20046;-93
2023/10/19 13:00:29;;;;;;;5.78;5.43;;;;;;;;;;5987863;29;20051;-94
2023/10/19 13:03:36;;;;;;;5.72;5.40;;;;;;;;;;5992481;29;20057;-93
2023/10/19 13:06:38;;;;;;;6.00;5.70;;;;;;;;;;5989226;29;20046;-95
2023/10/19 13:09:40;;;;;;;5.15;4.93;;;;;;;;;;5990983;29;20042;-93
2023/10/19 13:12:42;;;;;;;4.97;4.68;;;;;;;;;;5991193;29;20133;-94
2023/10/19 13:15:45;;;;;;;5.65;5.28;;;;;;;;;;5991439;29;20059;-94
2023/10/19 13:18:49;;;;;;;5.40;5.07;;;;;;;;;;5992237;29;20043;-94
2023/10/19 13:21:52;;;;;;;4.68;4.38;;;;;;;;;;5980034;29;20050;-94
2023/10/19 13:24:55;;;;;;;6.05;5.75;;;;;;;;;;5984001;29;20050;-94
2023/10/19 13:27:58;;;;;;;4.50;4.28;;;;;;;;;;5987034;29;20054;-94
2023/10/19 13:30:59;;;;;;;6.35;5.85;;;;;;;;;;5981516;29;20054;-94
2023/10/19 13:34:03;;;;;;;5.38;5.03;;;;;;;;;;5985603;29;20046;-94
2023/10/19 13:37:07;;;;;;;5.75;5.38;;;;;;;;;;5983762;29;20183;-94
2023/10/19 13:40:11;;;;;;;5.35;5.13;;;;;;;;;;6001909;29;20175;-93
2023/10/19 13:43:19;;;;;;;4.68;4.35;;;;;;;;;;5994183;29;20141;-94
2023/10/19 13:46:23;;;;;;;5.93;5.63;;;;;;;;;;5991804;29;20069;-94
2023/10/19 13:49:25;;;;;;;5.72;5.30;;;;;;;;;;5990207;29;20050;-93
2023/10/19 13:52:27;;;;;;;4.88;4.47;;;;;;;;;;5993602;29;20050;-93
2023/10/19 13:55:29;;;;;;;5.60;5.22;;;;;;;;;;5981041;29;20054;-94
2023/10/19 13:58:33;;;;;;;6.45;6.05;;;;;;;;;;5985626;29;20054;-93
2023/10/19 14:01:34;;;;;;;5.00;4.70;;;;;;;;;;5972275;29;20081;-93
2023/10/19 14:04:38;;;;;;;6.00;5.70;;;;;;;;;;5997458;29;20064;-93
2023/10/19 14:07:39;;;;;;;5.82;5.28;;;;;;;;;;5986551;29;20050;-93
2023/10/19 14:10:41;;;;;;;5.50;5.00;;;;;;;;;;5987316;29;20046;-93
2023/10/19 14:13:44;;;;;;;7.13;6.63;;;;;;;;;;5996790;29;20046;-94
2023/10/19 14:16:47;;;;;;;5.28;4.95;;;;;;;;;;5994724;29;20182;-93
2023/10/19 14:19:49;;;;;;;5.55;5.18;;;;;;;;;;5984452;29;20445;-93
2023/10/19 14:22:53;;;;;;;6.97;6.45;;;;;;;;;;5991847;29;20097;-93
2023/10/19 14:25:55;;;;;;;6.55;6.05;;;;;;;;;;5997880;29;20056;-94
2023/10/19 14:28:57;;;;;;;8.02;6.03;;;;;;;;;;5997201;29;20061;-93
2023/10/19 14:31:59;;;;;;;6.25;5.93;;;;;;;;;;5989561;29;20046;-94
2023/10/19 14:35:03;;;;;;;5.72;5.35;;;;;;;;;;5989242;29;20056;-94
2023/10/19 14:38:06;;;;;;;6.55;6.20;;;;;;;;;;5978579;29;20560;-93
2023/10/19 14:41:08;;;;;;;4.93;4.72;;;;;;;;;;5982514;29;20061;-93
2023/10/19 14:44:11;;;;;;;6.05;5.35;;;;;;;;;;5997132;29;20073;-94
2023/10/19 14:47:13;;;;;;;5.00;4.80;;;;;;;;;;5983784;29;20500;-94
2023/10/19 14:50:17;;;;;;;6.72;6.28;;;;;;;;;;5988685;29;20094;-94
2023/10/19 14:53:20;;;;;;;6.53;6.03;;;;;;;;;;5987075;29;20057;-94
2023/10/19 14:56:21;;;;;;;4.93;4.72;;;;;;;;;;5982646;29;20171;-93
2023/10/19 14:59:24;;;;;;;7.82;7.22;;;;;;;;;;5989937;29;20046;-93
2023/10/19 15:02:26;;;;;;;6.25;5.85;;;;;;;;;;5979445;29;20042;-94
2023/10/19 15:05:28;;;;;;;6.63;6.10;;;;;;;;;;5984286;29;20145;-93
2023/10/19 15:08:31;;;;;;;7.45;6.82;;;;;;;;;;5996140;29;20054;-93
2023/10/19 15:11:34;;;;;;;5.93;5.47;;;;;;;;;;5984398;29;20062;-94
2023/10/19 15:14:39;;;;;;;5.70;5.40;;;;;;;;;;5981150;29;20050;-93
2023/10/19 15:17:41;;;;;;;6.25;5.95;;;;;;;;;;5980337;29;20046;-93
2023/10/19 15:20:43;;;;;;;6.82;6.38;;;;;;;;;;5979306;29;20054;-94
2023/10/19 15:23:46;;;;;;;5.70;5.40;;;;;;;;;;5987372;29;20055;-93
2023/10/19 15:26:48;;;;;;;11.02;5.13;;;;;;;;;;5989563;29;20410;-94
2023/10/19 15:29:50;;;;;;;8.27;7.78;;;;;;;;;;5990941;29;20050;-94
2023/10/19 15:32:58;;;;;;;6.28;5.88;;;;;;;;;;5993582;29;20054;-93
2023/10/19 15:36:00;;;;;;;7.47;6.97;;;;;;;;;;5966465;29;20062;-93
2023/10/19 15:39:02;;;;;;;6.22;5.78;;;;;;;;;;5977632;29;20058;-93
2023/10/19 15:42:07;;;;;;;8.02;7.45;;;;;;;;;;5996344;29;20066;-94
2023/10/19 15:45:11;;;;;;;8.30;7.75;;;;;;;;;;5972836;29;20061;-94
2023/10/19 15:48:13;;;;;;;7.85;7.35;;;;;;;;;;5997012;29;20113;-96
2023/10/19 15:51:16;;;;;;;8.43;7.78;;;;;;;;;;5976869;29;20050;-95
2023/10/19 15:54:19;;;;;;;7.53;6.85;;;;;;;;;;5983876;29;20042;-96
2023/10/19 15:57:23;;;;;;;8.32;7.68;;;;;;;;;;5983738;29;20813;-96
2023/10/19 16:00:28;;;;;;;8.38;7.55;;;;;;;;;;5994358;29;20049;-96
2023/10/19 16:03:29;;;;;;;8.27;7.63;;;;;;;;;;5983360;29;20386;-96
2023/10/19 16:06:32;;;;;;;9.10;8.38;;;;;;;;;;5990614;29;20634;-95
2023/10/19 16:09:35;;;;;;;8.90;6.93;;;;;;;;;;5988244;29;20061;-96
2023/10/19 16:12:38;;;;;;;9.57;8.88;;;;;;;;;;5977817;29;20526;-96
2023/10/19 16:15:40;;;;;;;12.23;7.65;;;;;;;;;;5991314;29;20046;-96
2023/10/19 16:18:43;;;;;;;8.65;8.15;;;;;;;;;;5990844;29;20057;-96
2023/10/19 16:21:46;;;;;;;9.52;8.70;;;;;;;;;;5996120;29;20594;-94
2023/10/19 16:24:48;;;;;;;9.00;8.10;;;;;;;;;;5994265;29;20050;-94
2023/10/19 16:27:50;;;;;;;11.30;8.60;;;;;;;;;;5984929;29;20069;-96
2023/10/19 16:30:52;;;;;;;12.38;9.50;;;;;;;;;;5987824;29;20087;-95
2023/10/19 16:33:54;;;;;;;10.65;7.35;;;;;;;;;;5995582;29;20069;-95
2023/10/19 16:36:56;;;;;;;8.70;7.80;;;;;;;;;;5987242;29;20432;-96
2023/10/19 16:40:00;;;;;;;8.27;7.78;;;;;;;;;;5988326;29;20049;-96
2023/10/19 16:43:02;;;;;;;10.35;9.55;;;;;;;;;;5985168;29;20047;-96
2023/10/19 16:46:04;;;;;;;9.05;8.35;;;;;;;;;;5995127;29;20050;-96
2023/10/19 16:49:08;;;;;;;8.10;7.60;;;;;;;;;;5981269;29;20058;-94
2023/10/19 16:52:10;;;;;;;9.88;9.07;;;;;;;;;;5990412;29;20050;-95
2023/10/19 16:55:12;;;;;;;11.05;10.07;;;;;;;;;;5986172;29;20470;-96
2023/10/19 16:58:15;;;;;;;9.65;8.68;;;;;;;;;;5988941;29;20505;-95
2023/10/19 17:01:17;;;;;;;12.23;8.98;;;;;;;;;;5990960;29;20377;-94
2023/10/19 17:04:19;;;;;;;9.13;8.35;;;;;;;;;;5986267;29;20650;-95
2023/10/19 17:07:22;;;;;;;10.18;9.07;;;;;;;;;;5977584;29;20268;-96
2023/10/19 17:10:23;;;;;;;9.68;8.75;;;;;;;;;;5981336;29;20042;-95
2023/10/19 17:13:26;;;;;;;16.00;10.38;;;;;;;;;;5984608;29;20058;-96
2023/10/19 17:16:29;;;;;;;13.82;8.43;;;;;;;;;;5992155;29;20050;-96
2023/10/19 17:19:31;;;;;;;8.95;8.30;;;;;;;;;;5990354;29;20150;-94
2023/10/19 17:22:33;;;;;;;9.50;8.77;;;;;;;;;;5991822;29;20058;-95
2023/10/19 17:25:36;;;;;;;9.98;9.27;;;;;;;;;;5994376;29;20050;-94
2023/10/19 17:28:38;;;;;;;9.65;8.85;;;;;;;;;;5988038;29;20053;-95
2023/10/19 17:31:40;;;;;;;17.20;11.25;;;;;;;;;;5996490;29;20050;-94
2023/10/19 17:34:42;;;;;;;10.38;9.50;;;;;;;;;;5998188;29;20053;-93
2023/10/19 17:37:44;;;;;;;10.35;9.38;;;;;;;;;;5985977;29;20054;-93
2023/10/19 17:40:46;;;;;;;7.85;7.32;;;;;;;;;;6000866;29;20065;-94
2023/10/19 17:43:47;;;;;;;9.30;8.48;;;;;;;;;;5992198;29;20348;-93
2023/10/19 17:46:51;;;;;;;9.02;8.32;;;;;;;;;;5996483;29;20054;-93
2023/10/19 17:49:54;;;;;;;10.75;8.98;;;;;;;;;;5985345;29;20046;-92
2023/10/19 17:52:56;;;;;;;15.93;9.75;;;;;;;;;;6001400;29;20051;-93
2023/10/19 17:55:58;;;;;;;9.77;8.85;;;;;;;;;;5980500;29;20050;-93
2023/10/19 17:59:00;;;;;;;13.07;7.88;;;;;;;;;;5985201;29;20098;-92
2023/10/19 18:02:03;;;;;;;9.20;8.20;;;;;;;;;;5982225;29;20060;-92
2023/10/19 18:05:06;;;;;;;9.60;8.90;;;;;;;;;;5984464;29;20045;-92
2023/10/19 18:08:10;;;;;;;10.82;10.07;;;;;;;;;;5983884;29;20061;-92
2023/10/19 18:11:13;;;;;;;10.05;9.20;;;;;;;;;;5989237;29;20043;-93
2023/10/19 18:14:14;;;;;;;10.55;9.63;;;;;;;;;;5978658;29;20338;-93
2023/10/19 18:17:18;;;;;;;6.18;5.57;;;;;;;;;;5990639;29;20402;-93
2023/10/19 18:20:20;;;;;;;7.40;6.95;;;;;;;;;;5982958;29;20045;-93
2023/10/19 18:23:23;;;;;;;8.93;8.27;;;;;;;;;;5988214;29;20085;-94
2023/10/19 18:26:25;;;;;;;11.63;10.38;;;;;;;;;;5994070;29;20135;-93
2023/10/19 18:29:33;;;;;;;9.10;7.80;;;;;;;;;;5992829;29;20129;-93
2023/10/19 18:32:35;;;;;;;9.38;8.57;;;;;;;;;;6003269;29;20178;-93
2023/10/19 18:35:39;;;;;;;9.40;8.60;;;;;;;;;;5993979;29;20077;-92
2023/10/19 18:38:41;;;;;;;8.57;7.35;;;;;;;;;;5984047;29;20417;-93